createdAt,value
2019-02-19T00:00:13.296Z,164.32
2019-02-19T00:01:17.976Z,161.00
2019-02-19T00:02:31.370Z,165.37
2019-02-19T00:03:40.127Z,168.50
2019-02-19T00:04:44.215Z,149.85
2019-02-19T00:05:50.062Z,159.48
2019-02-19T00:06:58.463Z,165.47
2019-02-19T00:08:05.727Z,158.70
2019-02-19T00:09:16.623Z,160.55
2019-02-19T00:10:22.343Z,173.53
2019-02-19T00:11:26.415Z,161.77
2019-02-19T00:12:38.605Z,167.13
2019-02-19T00:13:43.509Z,165.18
2019-02-19T00:14:50.369Z,165.43
2019-02-19T00:15:58.075Z,164.18
2019-02-19T00:17:01.804Z,166.22
2019-02-19T00:18:06.998Z,171.15
2019-02-19T00:19:13.794Z,170.30
2019-02-19T00:20:18.256Z,175.47
2019-02-19T00:21:22.265Z,171.95
2019-02-19T00:22:27.030Z,168.37
2019-02-19T00:23:37.331Z,167.62
2019-02-19T00:24:38.217Z,165.12
2019-02-19T00:25:47.252Z,165.40
2019-02-19T00:26:51.466Z,157.67
2019-02-19T00:27:58.989Z,169.70
2019-02-19T00:29:07.422Z,172.37
2019-02-19T00:30:12.620Z,167.15
2019-02-19T00:31:21.517Z,161.95
2019-02-19T00:32:25.851Z,162.97
2019-02-19T00:33:30.972Z,166.45
2019-02-19T00:34:34.982Z,166.65
2019-02-19T00:35:40.995Z,173.15
2019-02-19T00:36:45.287Z,161.55
2019-02-19T00:37:50.090Z,158.42
2019-02-19T00:38:54.056Z,158.42
2019-02-19T00:39:59.624Z,163.60
2019-02-19T00:41:05.203Z,163.25
2019-02-19T00:42:15.149Z,157.75
2019-02-19T00:43:26.782Z,163.85
2019-02-19T00:44:32.946Z,146.22
2019-02-19T00:45:39.841Z,161.03
2019-02-19T00:46:46.888Z,160.22
2019-02-19T00:48:01.515Z,162.03
2019-02-19T00:49:09.141Z,161.43
2019-02-19T00:50:22.507Z,157.78
2019-02-19T00:51:32.985Z,158.75
2019-02-19T00:52:43.021Z,160.50
2019-02-19T00:53:59.061Z,155.45
2019-02-19T00:55:02.927Z,149.40
2019-02-19T00:56:07.121Z,165.80
2019-02-19T00:57:12.003Z,171.28
2019-02-19T00:58:16.229Z,154.95
2019-02-19T00:59:28.110Z,171.72
2019-02-19T01:00:35.404Z,168.47
2019-02-19T01:03:13.159Z,164.13
2019-02-19T01:04:18.897Z,162.62
2019-02-19T01:05:32.361Z,164.75
2019-02-19T01:06:39.697Z,162.32
2019-02-19T01:07:49.183Z,160.25
2019-02-19T01:08:52.295Z,171.53
2019-02-19T01:09:57.327Z,170.72
2019-02-19T01:11:02.010Z,168.30
2019-02-19T01:12:06.109Z,161.97
2019-02-19T01:13:10.936Z,169.40
2019-02-19T01:14:15.103Z,165.35
2019-02-19T01:15:25.511Z,165.07
2019-02-19T01:16:29.688Z,172.72
2019-02-19T01:17:44.603Z,159.52
2019-02-19T01:18:45.049Z,167.55
2019-02-19T01:19:52.271Z,161.50
2019-02-19T01:20:56.807Z,160.63
2019-02-19T01:22:00.950Z,160.57
2019-02-19T01:23:04.901Z,162.80
2019-02-19T01:24:09.013Z,164.45
2019-02-19T01:25:12.990Z,154.42
2019-02-19T01:26:16.899Z,165.95
2019-02-19T01:27:20.991Z,163.32
2019-02-19T01:28:24.959Z,166.15
2019-02-19T01:29:28.984Z,168.90
2019-02-19T01:30:32.934Z,166.50
2019-02-19T01:31:37.003Z,167.05
2019-02-19T01:32:42.631Z,168.60
2019-02-19T01:33:47.013Z,173.15
2019-02-19T01:34:54.679Z,166.57
2019-02-19T01:36:00.691Z,164.62
2019-02-19T01:37:06.318Z,163.12
2019-02-19T01:38:16.733Z,166.95
2019-02-19T01:39:21.694Z,171.75
2019-02-19T01:40:26.519Z,162.05
2019-02-19T01:41:32.368Z,169.80
2019-02-19T01:42:47.331Z,161.65
2019-02-19T01:43:45.113Z,171.62
2019-02-19T01:44:49.504Z,176.82
2019-02-19T01:45:55.509Z,165.85
2019-02-19T01:46:59.535Z,167.50
2019-02-19T01:48:05.054Z,174.65
2019-02-19T01:49:09.854Z,164.22
2019-02-19T01:50:13.840Z,156.22
2019-02-19T01:51:19.167Z,156.35
2019-02-19T01:52:23.085Z,166.95
2019-02-19T01:53:27.057Z,166.90
2019-02-19T01:54:31.037Z,170.57
2019-02-19T01:55:34.968Z,163.10
2019-02-19T01:56:38.959Z,169.45
2019-02-19T01:57:43.098Z,167.95
2019-02-19T01:58:47.148Z,166.03
2019-02-19T01:59:51.229Z,164.72
2019-02-19T02:00:55.195Z,163.03
2019-02-19T02:01:59.627Z,166.05
2019-02-19T02:03:03.667Z,165.97
2019-02-19T02:04:09.349Z,172.40
2019-02-19T02:05:16.147Z,163.68
2019-02-19T02:06:22.983Z,162.22
2019-02-19T02:07:28.719Z,175.90
2019-02-19T02:08:34.633Z,167.95
2019-02-19T02:09:40.822Z,167.43
2019-02-19T02:10:50.113Z,170.75
2019-02-19T02:11:55.513Z,173.90
2019-02-19T02:12:59.512Z,158.15
2019-02-19T02:14:03.574Z,161.20
2019-02-19T02:15:08.209Z,176.45
2019-02-19T02:16:12.291Z,170.53
2019-02-19T02:17:16.515Z,169.65
2019-02-19T02:18:20.588Z,165.57
2019-02-19T02:19:25.317Z,168.47
2019-02-19T02:20:31.537Z,168.55
2019-02-19T02:21:35.560Z,173.00
2019-02-19T02:22:39.645Z,166.60
2019-02-19T02:23:45.302Z,166.85
2019-02-19T02:24:54.216Z,159.50
2019-02-19T02:25:58.761Z,159.48
2019-02-19T02:27:02.785Z,170.40
2019-02-19T02:28:08.948Z,165.15
2019-02-19T02:29:13.168Z,161.05
2019-02-19T02:30:17.312Z,163.50
2019-02-19T02:31:21.302Z,170.07
2019-02-19T02:32:25.320Z,166.35
2019-02-19T02:33:31.061Z,164.95
2019-02-19T02:34:35.278Z,165.82
2019-02-19T02:35:39.355Z,167.00
2019-02-19T02:36:44.501Z,161.92
2019-02-19T02:37:48.703Z,158.15
2019-02-19T02:38:52.813Z,161.05
2019-02-19T02:39:58.013Z,149.93
2019-02-19T02:41:03.887Z,157.30
2019-02-19T02:42:07.917Z,159.43
2019-02-19T02:43:12.604Z,162.82
2019-02-19T02:44:24.445Z,154.45
2019-02-19T02:45:28.648Z,156.10
2019-02-19T02:46:32.752Z,176.63
2019-02-19T02:47:36.928Z,170.05
2019-02-19T02:48:40.984Z,167.57
2019-02-19T02:49:47.954Z,165.50
2019-02-19T02:50:52.168Z,163.00
2019-02-19T02:51:58.518Z,173.55
2019-02-19T02:53:05.194Z,166.20
2019-02-19T02:54:09.177Z,164.30
2019-02-19T02:55:13.161Z,169.57
2019-02-19T02:56:17.389Z,163.72
2019-02-19T02:57:26.609Z,158.35
2019-02-19T02:58:30.590Z,163.50
2019-02-19T02:59:37.249Z,168.20
2019-02-19T03:00:41.997Z,172.53
2019-02-19T03:01:45.974Z,161.80
2019-02-19T03:02:50.044Z,164.30
2019-02-19T03:03:53.997Z,163.47
2019-02-19T03:04:58.063Z,169.25
2019-02-19T03:06:22.758Z,167.40
2019-02-19T03:07:37.060Z,165.62
2019-02-19T03:08:41.247Z,166.43
2019-02-19T03:09:48.491Z,171.35
2019-02-19T03:10:52.475Z,169.77
2019-02-19T03:11:56.808Z,169.40
2019-02-19T03:13:00.936Z,167.40
2019-02-19T03:14:05.095Z,166.10
2019-02-19T03:15:11.145Z,175.20
2019-02-19T03:16:15.696Z,170.28
2019-02-19T03:17:19.800Z,184.45
2019-02-19T03:18:23.857Z,180.55
2019-02-19T03:19:27.963Z,174.72
2019-02-19T03:20:32.059Z,184.25
2019-02-19T03:21:36.061Z,171.15
2019-02-19T03:22:40.149Z,180.70
2019-02-19T03:23:45.703Z,173.72
2019-02-19T03:24:50.037Z,174.40
2019-02-19T03:25:53.930Z,172.50
2019-02-19T03:26:58.011Z,170.60
2019-02-19T03:28:04.757Z,163.12
2019-02-19T03:29:08.863Z,168.30
2019-02-19T03:30:13.985Z,181.80
2019-02-19T03:31:18.215Z,177.47
2019-02-19T03:32:24.418Z,173.72
2019-02-19T03:33:28.997Z,179.72
2019-02-19T03:34:33.009Z,178.23
2019-02-19T03:35:36.982Z,173.20
2019-02-19T03:36:40.988Z,173.17
2019-02-19T03:37:48.353Z,161.32
2019-02-19T03:38:52.365Z,167.53
2019-02-19T03:39:56.384Z,160.75
2019-02-19T03:41:00.512Z,160.90
2019-02-19T03:42:04.562Z,172.40
2019-02-19T03:43:09.812Z,167.53
2019-02-19T03:44:13.853Z,177.47
2019-02-19T03:45:17.996Z,169.20
2019-02-19T03:46:24.171Z,177.62
2019-02-19T03:47:29.784Z,167.82
2019-02-19T03:48:33.671Z,170.45
2019-02-19T03:49:42.157Z,175.90
2019-02-19T03:50:45.930Z,171.45
2019-02-19T03:51:51.090Z,173.97
2019-02-19T03:52:56.874Z,168.60
2019-02-19T03:54:03.665Z,168.62
2019-02-19T03:55:07.747Z,163.57
2019-02-19T03:56:13.180Z,177.80
2019-02-19T03:57:18.757Z,167.10
2019-02-19T03:58:22.799Z,174.87
2019-02-19T03:59:26.797Z,182.40
2019-02-19T04:00:31.979Z,171.30
2019-02-19T04:01:37.362Z,171.30
2019-02-19T04:02:41.397Z,164.30
2019-02-19T04:03:50.072Z,163.97
2019-02-19T04:04:53.954Z,156.72
2019-02-19T04:05:57.883Z,165.90
2019-02-19T04:07:02.092Z,168.50
2019-02-19T04:08:06.072Z,170.38
2019-02-19T04:09:10.683Z,157.93
2019-02-19T04:10:15.262Z,168.43
2019-02-19T04:11:19.389Z,164.10
2019-02-19T04:12:24.522Z,173.28
2019-02-19T04:13:29.756Z,165.45
2019-02-19T04:14:34.890Z,171.62
2019-02-19T04:15:40.518Z,179.57
2019-02-19T04:16:44.517Z,163.35
2019-02-19T04:17:48.612Z,170.97
2019-02-19T04:18:52.624Z,169.57
2019-02-19T04:19:56.580Z,155.50
2019-02-19T04:21:00.860Z,160.63
2019-02-19T04:22:07.402Z,173.53
2019-02-19T04:23:11.390Z,166.25
2019-02-19T04:24:15.360Z,167.95
2019-02-19T04:25:20.924Z,164.03
2019-02-19T04:26:26.075Z,178.60
2019-02-19T04:27:30.054Z,178.97
2019-02-19T04:28:35.726Z,174.12
2019-02-19T04:29:41.436Z,171.02
2019-02-19T04:30:46.638Z,169.72
2019-02-19T04:31:52.332Z,174.60
2019-02-19T04:32:56.407Z,174.87
2019-02-19T04:34:00.375Z,171.98
2019-02-19T04:35:05.894Z,173.60
2019-02-19T04:36:11.281Z,169.32
2019-02-19T04:37:15.374Z,190.35
2019-02-19T04:38:22.215Z,172.47
2019-02-19T04:39:27.642Z,176.90
2019-02-19T04:40:31.718Z,179.42
2019-02-19T04:41:37.016Z,175.57
2019-02-19T04:42:46.277Z,167.03
2019-02-19T04:43:52.181Z,184.20
2019-02-19T04:45:00.696Z,171.87
2019-02-19T04:46:04.916Z,170.20
2019-02-19T04:47:10.738Z,187.18
2019-02-19T04:48:16.255Z,203.45
2019-02-19T04:49:20.339Z,193.00
2019-02-19T04:50:24.312Z,192.13
2019-02-19T04:51:28.955Z,181.37
2019-02-19T04:52:35.312Z,168.70
2019-02-19T04:53:40.985Z,190.38
2019-02-19T04:54:48.581Z,188.90
2019-02-19T04:55:54.438Z,177.90
2019-02-19T04:56:58.498Z,169.30
2019-02-19T04:58:04.280Z,198.23
2019-02-19T04:59:09.574Z,188.72
2019-02-19T05:00:14.139Z,174.62
2019-02-19T05:01:19.325Z,186.88
2019-02-19T05:02:24.992Z,193.15
2019-02-19T05:03:30.714Z,186.25
2019-02-19T05:04:37.112Z,190.82
2019-02-19T05:05:41.706Z,188.40
2019-02-19T05:06:46.327Z,199.68
2019-02-19T05:07:50.265Z,189.35
2019-02-19T05:08:58.412Z,194.60
2019-02-19T05:10:04.363Z,183.65
2019-02-19T05:11:09.797Z,181.97
2019-02-19T05:12:13.791Z,188.95
2019-02-19T05:13:17.782Z,198.23
2019-02-19T05:14:22.410Z,179.00
2019-02-19T05:15:26.455Z,177.57
2019-02-19T05:16:40.473Z,175.40
2019-02-19T05:17:37.933Z,169.62
2019-02-19T05:18:41.907Z,172.37
2019-02-19T05:19:47.611Z,185.85
2019-02-19T05:20:51.713Z,198.13
2019-02-19T05:21:55.634Z,198.30
2019-02-19T05:23:02.648Z,207.22
2019-02-19T05:24:06.827Z,196.63
2019-02-19T05:25:11.073Z,177.32
2019-02-19T05:26:15.105Z,181.82
2019-02-19T05:27:20.306Z,195.82
2019-02-19T05:28:24.478Z,197.70
2019-02-19T05:29:28.753Z,192.57
2019-02-19T05:30:35.184Z,193.32
2019-02-19T05:31:40.062Z,173.13
2019-02-19T05:32:44.786Z,188.25
2019-02-19T05:33:48.801Z,190.03
2019-02-19T05:34:53.966Z,197.68
2019-02-19T05:35:58.007Z,198.53
2019-02-19T05:37:03.233Z,182.15
2019-02-19T05:38:07.650Z,167.47
2019-02-19T05:39:12.308Z,207.03
2019-02-19T05:40:16.231Z,194.43
2019-02-19T05:41:25.324Z,188.37
2019-02-19T05:42:25.786Z,186.50
2019-02-19T05:43:29.787Z,194.62
2019-02-19T05:44:33.847Z,180.15
2019-02-19T05:45:38.561Z,185.37
2019-02-19T05:46:49.575Z,194.60
2019-02-19T05:47:48.131Z,198.90
2019-02-19T05:48:53.178Z,184.57
2019-02-19T05:49:57.090Z,194.77
2019-02-19T05:51:01.246Z,184.22
2019-02-19T05:52:05.233Z,176.90
2019-02-19T05:53:09.268Z,196.70
2019-02-19T05:54:13.196Z,189.05
2019-02-19T05:55:17.266Z,203.18
2019-02-19T05:56:21.202Z,191.20
2019-02-19T05:57:25.181Z,200.68
2019-02-19T05:58:30.933Z,193.78
2019-02-19T05:59:34.802Z,177.27
2019-02-19T06:00:40.345Z,195.55
2019-02-19T06:01:46.529Z,196.95
2019-02-19T06:02:50.494Z,183.93
2019-02-19T06:03:55.992Z,201.50
2019-02-19T06:04:59.972Z,195.40
2019-02-19T06:06:05.379Z,198.57
2019-02-19T06:07:09.938Z,184.70
2019-02-19T06:08:18.938Z,188.60
2019-02-19T06:09:22.904Z,184.32
2019-02-19T06:10:28.657Z,181.97
2019-02-19T06:11:34.210Z,178.12
2019-02-19T06:12:38.295Z,182.80
2019-02-19T06:13:43.911Z,184.50
2019-02-19T06:14:47.959Z,187.53
2019-02-19T06:15:54.624Z,166.75
2019-02-19T06:16:58.984Z,172.05
2019-02-19T06:18:06.101Z,172.17
2019-02-19T06:19:10.053Z,173.43
2019-02-19T06:20:16.415Z,180.18
2019-02-19T06:21:20.356Z,170.87
2019-02-19T06:22:25.907Z,183.80
2019-02-19T06:23:29.894Z,195.30
2019-02-19T06:24:36.144Z,184.90
2019-02-19T06:25:41.759Z,189.67
2019-02-19T06:26:45.809Z,183.75
2019-02-19T06:27:49.822Z,195.18
2019-02-19T06:28:53.889Z,183.37
2019-02-19T06:29:58.460Z,191.00
2019-02-19T06:31:04.666Z,196.45
2019-02-19T06:32:09.061Z,178.23
2019-02-19T06:33:13.038Z,173.80
2019-02-19T06:34:20.714Z,183.30
2019-02-19T06:35:24.629Z,166.53
2019-02-19T06:36:28.608Z,186.67
2019-02-19T06:37:32.547Z,192.98
2019-02-19T06:38:38.529Z,186.52
2019-02-19T06:39:42.728Z,182.02
2019-02-19T06:40:46.759Z,165.12
2019-02-19T06:41:50.779Z,185.57
2019-02-19T06:42:55.406Z,180.70
2019-02-19T06:43:59.412Z,176.93
2019-02-19T06:45:08.574Z,177.45
2019-02-19T06:46:12.580Z,184.78
2019-02-19T06:47:19.877Z,162.22
2019-02-19T06:48:25.293Z,187.07
2019-02-19T06:49:41.946Z,185.28
2019-02-19T06:50:48.538Z,175.40
2019-02-19T06:51:56.067Z,162.15
2019-02-19T06:53:04.672Z,157.57
2019-02-19T06:54:19.701Z,160.22
2019-02-19T06:55:45.919Z,184.28
2019-02-19T06:56:55.489Z,162.43
2019-02-19T06:58:04.765Z,156.20
2019-02-19T06:59:11.026Z,162.75
2019-02-19T07:00:15.424Z,176.82
2019-02-19T07:01:22.960Z,148.68
2019-02-19T07:02:47.392Z,153.95
2019-02-19T07:03:56.105Z,152.80
2019-02-19T07:05:00.762Z,158.27
2019-02-19T07:06:08.811Z,150.68
2019-02-19T07:07:14.380Z,169.28
2019-02-19T07:08:20.419Z,159.97
2019-02-19T07:09:25.705Z,156.15
2019-02-19T07:10:30.442Z,157.67
2019-02-19T07:11:34.407Z,144.17
2019-02-19T07:12:40.261Z,153.78
2019-02-19T07:13:47.057Z,161.43
2019-02-19T07:14:52.764Z,148.38
2019-02-19T07:15:56.875Z,150.60
2019-02-19T07:17:01.008Z,153.05
2019-02-19T07:18:05.064Z,156.28
2019-02-19T07:19:09.144Z,154.63
2019-02-19T07:20:18.657Z,152.05
2019-02-19T07:21:25.671Z,143.93
2019-02-19T07:22:29.677Z,150.90
2019-02-19T07:23:35.283Z,152.90
2019-02-19T07:24:39.575Z,145.95
2019-02-19T07:25:45.466Z,137.57
2019-02-19T07:26:49.575Z,153.10
2019-02-19T07:27:53.543Z,150.35
2019-02-19T07:28:58.653Z,147.15
2019-02-19T07:30:07.264Z,143.20
2019-02-19T07:31:14.508Z,152.62
2019-02-19T07:32:19.736Z,140.28
2019-02-19T07:33:34.736Z,145.22
2019-02-19T07:34:41.031Z,140.85
2019-02-19T07:35:45.204Z,157.03
2019-02-19T07:36:53.649Z,146.93
2019-02-19T07:37:58.569Z,137.15
2019-02-19T07:39:13.058Z,134.78
2019-02-19T07:41:58.908Z,135.70
2019-02-19T07:43:02.945Z,131.85
2019-02-19T07:44:07.422Z,146.32
2019-02-19T07:45:13.280Z,141.70
2019-02-19T07:46:17.485Z,134.95
2019-02-19T07:47:24.617Z,141.97
2019-02-19T07:48:27.930Z,132.67
2019-02-19T07:49:32.937Z,136.80
2019-02-19T07:50:40.193Z,137.95
2019-02-19T07:51:48.119Z,131.90
2019-02-19T07:52:55.810Z,149.55
2019-02-19T07:53:59.810Z,148.02
2019-02-19T07:55:04.594Z,143.65
2019-02-19T07:56:09.920Z,142.53
2019-02-19T07:57:15.498Z,145.72
2019-02-19T07:58:22.054Z,144.25
2019-02-19T07:59:27.694Z,140.60
2019-02-19T08:00:33.341Z,143.60
2019-02-19T08:01:37.950Z,136.25
2019-02-19T08:02:41.968Z,143.05
2019-02-19T08:03:48.325Z,122.85
2019-02-19T08:04:52.305Z,119.90
2019-02-19T08:05:56.625Z,124.27
2019-02-19T08:07:00.762Z,116.55
2019-02-19T08:08:04.928Z,116.05
2019-02-19T08:09:12.017Z,114.17
2019-02-19T08:10:16.219Z,105.63
2019-02-19T08:11:21.369Z,110.30
2019-02-19T08:12:31.501Z,125.27
2019-02-19T08:13:34.270Z,109.35
2019-02-19T08:14:39.461Z,116.82
2019-02-19T08:15:45.137Z,126.82
2019-02-19T08:16:49.564Z,122.20
2019-02-19T08:17:57.475Z,108.12
2019-02-19T08:19:00.645Z,131.05
2019-02-19T08:20:13.451Z,123.20
2019-02-19T08:21:11.865Z,107.90
2019-02-19T08:22:16.492Z,129.42
2019-02-19T08:23:20.578Z,108.72
2019-02-19T08:24:26.307Z,117.40
2019-02-19T08:25:30.792Z,103.72
2019-02-19T08:26:34.998Z,103.62
2019-02-19T08:27:38.987Z,111.08
2019-02-19T08:28:45.891Z,133.80
2019-02-19T08:29:50.033Z,149.47
2019-02-19T08:31:06.624Z,127.07
2019-02-19T08:32:01.653Z,122.47
2019-02-19T08:33:08.689Z,122.22
2019-02-19T08:34:19.333Z,101.72
2019-02-19T08:35:23.975Z,124.70
2019-02-19T08:36:29.827Z,110.10
2019-02-19T08:37:54.719Z,108.65
2019-02-19T08:39:09.102Z,100.05
2019-02-19T08:40:24.041Z,115.30
2019-02-19T08:41:43.767Z,98.85
2019-02-19T08:43:07.572Z,100.35
2019-02-19T08:44:26.998Z,93.75
2019-02-19T08:45:42.986Z,89.03
2019-02-19T08:46:37.355Z,93.62
2019-02-19T08:47:44.453Z,90.45
2019-02-19T08:48:59.315Z,90.15
2019-02-19T08:50:07.075Z,93.20
2019-02-19T08:51:14.642Z,97.17
2019-02-19T08:52:32.507Z,86.00
2019-02-19T08:53:44.562Z,84.52
2019-02-19T08:56:16.331Z,79.97
2019-02-19T08:58:48.131Z,77.42
2019-02-19T09:00:02.280Z,71.30
2019-02-19T09:01:05.967Z,86.67
2019-02-19T09:03:49.495Z,75.67
2019-02-19T09:06:25.341Z,78.17
2019-02-19T09:07:38.259Z,77.37
2019-02-19T09:08:41.841Z,78.62
2019-02-19T09:09:50.243Z,79.70
2019-02-19T09:12:07.563Z,65.37
2019-02-19T09:12:11.670Z,73.80
2019-02-19T09:13:16.491Z,73.52
2019-02-19T09:14:21.932Z,78.37
2019-02-19T09:14:33.460Z,73.80
2019-02-19T09:15:39.913Z,74.47
2019-02-19T09:16:42.283Z,68.35
2019-02-19T09:17:51.976Z,62.35
2019-02-19T09:19:17.879Z,65.28
2019-02-19T09:20:12.394Z,66.95
2019-02-19T09:21:18.283Z,66.77
2019-02-19T09:22:30.595Z,71.28
2019-02-19T09:23:32.214Z,62.45
2019-02-19T09:24:38.157Z,70.08
2019-02-19T09:25:45.709Z,65.67
2019-02-19T09:26:54.153Z,67.75
2019-02-19T09:28:04.716Z,64.20
2019-02-19T09:29:15.259Z,65.67
2019-02-19T09:30:13.553Z,62.10
2019-02-19T09:31:26.944Z,70.55
2019-02-19T09:32:39.112Z,67.95
2019-02-19T09:33:44.867Z,65.37
2019-02-19T09:34:58.659Z,69.15
2019-02-19T09:35:59.945Z,61.68
2019-02-19T09:37:07.652Z,63.52
2019-02-19T09:39:09.598Z,57.43
2019-02-19T09:39:33.457Z,73.10
2019-02-19T09:40:42.981Z,61.90
2019-02-19T09:41:47.196Z,61.35
2019-02-19T09:42:54.977Z,65.83
2019-02-19T09:44:02.359Z,59.25
2019-02-19T09:45:09.721Z,62.95
2019-02-19T09:46:19.583Z,57.35
2019-02-19T09:47:35.405Z,54.67
2019-02-19T09:48:46.471Z,65.65
2019-02-19T09:50:06.663Z,57.27
2019-02-19T09:51:14.907Z,57.17
2019-02-19T09:52:24.342Z,59.83
2019-02-19T09:53:40.810Z,62.30
2019-02-19T09:54:42.040Z,55.85
2019-02-19T09:55:47.983Z,58.17
2019-02-19T09:56:59.016Z,58.58
2019-02-19T09:57:59.785Z,57.45
2019-02-19T10:00:47.155Z,54.10
2019-02-19T10:00:49.689Z,52.83
2019-02-19T10:01:37.888Z,58.87
2019-02-19T10:02:56.437Z,60.45
2019-02-19T10:04:37.994Z,56.58
2019-02-19T10:05:21.801Z,52.60
2019-02-19T10:07:01.561Z,59.53
2019-02-19T10:08:03.193Z,52.23
2019-02-19T10:08:58.377Z,55.65
2019-02-19T10:10:11.291Z,57.90
2019-02-19T10:11:24.725Z,56.28
2019-02-19T10:12:27.017Z,56.73
2019-02-19T10:13:51.252Z,60.83
2019-02-19T10:17:47.029Z,59.42
2019-02-19T10:18:57.622Z,56.15
2019-02-19T10:20:03.559Z,54.75
2019-02-19T10:21:09.264Z,51.25
2019-02-19T10:22:32.353Z,52.88
2019-02-19T10:23:35.425Z,62.00
2019-02-19T10:24:42.964Z,54.15
2019-02-19T10:25:51.586Z,52.30
2019-02-19T10:27:00.499Z,60.03
2019-02-19T10:28:06.187Z,55.50
2019-02-19T10:29:26.161Z,54.03
2019-02-19T10:30:27.606Z,52.95
2019-02-19T10:31:42.825Z,53.90
2019-02-19T10:32:52.283Z,49.98
2019-02-19T10:34:01.101Z,53.52
2019-02-19T10:35:14.537Z,59.63
2019-02-19T10:36:18.316Z,55.92
2019-02-19T10:37:25.707Z,52.13
2019-02-19T10:38:37.311Z,48.45
2019-02-19T10:44:53.152Z,52.93
2019-02-19T10:45:07.315Z,51.42
2019-02-19T10:47:31.123Z,50.80
2019-02-19T10:48:39.731Z,50.83
2019-02-19T10:49:48.753Z,51.63
2019-02-19T10:51:22.106Z,44.60
2019-02-19T10:52:10.344Z,49.38
2019-02-19T10:53:18.091Z,47.43
2019-02-19T10:54:28.708Z,41.50
2019-02-19T10:56:45.458Z,47.40
2019-02-19T10:57:54.110Z,46.40
2019-02-19T10:59:03.984Z,42.38
2019-02-19T11:00:12.047Z,45.67
2019-02-19T11:01:26.287Z,43.28
2019-02-19T11:05:48.432Z,49.77
2019-02-19T11:07:13.651Z,43.33
2019-02-19T11:08:22.088Z,45.15
2019-02-19T11:11:26.792Z,44.67
2019-02-19T11:11:51.657Z,43.05
2019-02-19T11:13:08.587Z,44.95
2019-02-19T11:14:36.010Z,44.38
2019-02-19T11:15:45.256Z,40.63
2019-02-19T11:20:19.988Z,47.25
2019-02-19T11:25:00.298Z,48.05
2019-02-19T11:25:42.820Z,47.83
2019-02-19T11:27:45.423Z,47.45
2019-02-19T11:29:19.139Z,48.58
2019-02-19T11:30:34.783Z,42.70
2019-02-19T11:31:25.902Z,42.27
2019-02-19T11:37:28.472Z,42.13
2019-02-19T11:43:16.161Z,47.80
2019-02-19T11:45:56.942Z,43.52
2019-02-19T11:47:05.900Z,46.90
2019-02-19T11:48:23.520Z,44.03
2019-02-19T11:49:59.202Z,39.98
2019-02-19T11:50:42.211Z,45.15
2019-02-19T11:51:48.033Z,41.70
2019-02-19T11:52:54.002Z,44.15
2019-02-19T11:53:58.562Z,41.45
2019-02-19T11:55:31.765Z,48.63
2019-02-19T11:56:20.455Z,48.40
2019-02-19T11:57:22.187Z,49.03
2019-02-19T11:58:33.842Z,45.25
2019-02-19T11:59:40.598Z,51.28
2019-02-19T12:00:49.007Z,44.13
2019-02-19T12:01:57.560Z,42.40
2019-02-19T12:03:05.906Z,48.05
2019-02-19T12:04:10.925Z,50.95
2019-02-19T12:05:15.144Z,43.23
2019-02-19T12:06:20.589Z,44.18
2019-02-19T12:07:35.441Z,40.67
2019-02-19T12:08:46.720Z,42.50
2019-02-19T12:09:53.688Z,46.25
2019-02-19T12:11:07.157Z,42.23
2019-02-19T12:12:13.080Z,39.78
2019-02-19T12:13:17.280Z,44.95
2019-02-19T12:14:24.162Z,43.33
2019-02-19T12:15:35.260Z,43.25
2019-02-19T12:17:48.618Z,39.63
2019-02-19T12:18:52.812Z,37.05
2019-02-19T12:19:58.352Z,38.92
2019-02-19T12:21:03.556Z,46.80
2019-02-19T12:22:16.275Z,45.98
2019-02-19T12:23:20.403Z,39.33
2019-02-19T12:24:25.598Z,38.98
2019-02-19T12:25:29.697Z,43.50
2019-02-19T12:26:34.846Z,40.73
2019-02-19T12:27:39.268Z,37.28
2019-02-19T12:28:51.047Z,41.73
2019-02-19T12:30:01.461Z,41.68
2019-02-19T12:31:09.806Z,40.12
2019-02-19T12:32:12.645Z,36.25
2019-02-19T12:33:21.204Z,38.75
2019-02-19T12:34:25.806Z,41.75
2019-02-19T12:35:37.489Z,39.65
2019-02-19T12:36:44.671Z,43.42
2019-02-19T12:37:50.508Z,43.60
2019-02-19T12:38:57.803Z,46.50
2019-02-19T12:40:14.226Z,41.65
2019-02-19T12:41:31.478Z,41.88
2019-02-19T12:42:26.364Z,42.62
2019-02-19T12:43:30.627Z,39.88
2019-02-19T12:44:34.736Z,41.33
2019-02-19T12:45:41.455Z,41.30
2019-02-19T12:46:47.745Z,46.08
2019-02-19T12:47:54.274Z,43.58
2019-02-19T12:48:57.662Z,40.23
2019-02-19T12:50:02.550Z,42.78
2019-02-19T12:51:07.376Z,41.33
2019-02-19T12:52:16.186Z,41.88
2019-02-19T12:53:22.100Z,38.05
2019-02-19T12:54:27.724Z,42.03
2019-02-19T12:55:33.058Z,43.50
2019-02-19T12:56:37.920Z,42.73
2019-02-19T12:57:45.438Z,43.83
2019-02-19T12:58:51.859Z,40.65
2019-02-19T12:59:57.578Z,46.25
2019-02-19T13:01:04.421Z,45.85
2019-02-19T13:02:10.910Z,42.17
2019-02-19T13:03:15.091Z,46.30
2019-02-19T13:04:21.721Z,43.40
2019-02-19T13:05:25.062Z,48.60
2019-02-19T13:06:30.811Z,41.95
2019-02-19T13:07:37.899Z,41.20
2019-02-19T13:08:45.651Z,41.77
2019-02-19T13:09:52.040Z,41.50
2019-02-19T13:10:57.447Z,41.42
2019-02-19T13:12:04.315Z,46.28
2019-02-19T13:13:13.292Z,41.42
2019-02-19T13:14:25.377Z,45.52
2019-02-19T13:15:27.456Z,44.73
2019-02-19T13:16:33.157Z,40.45
2019-02-19T13:17:38.627Z,37.88
2019-02-19T13:18:43.218Z,44.48
2019-02-19T13:19:50.188Z,42.30
2019-02-19T13:20:59.666Z,42.62
2019-02-19T13:22:03.808Z,41.23
2019-02-19T13:23:12.866Z,40.12
2019-02-19T13:24:15.509Z,41.02
2019-02-19T13:25:20.094Z,39.23
2019-02-19T13:26:27.306Z,39.03
2019-02-19T13:27:41.969Z,36.35
2019-02-19T13:28:48.642Z,40.48
2019-02-19T13:29:59.958Z,39.70
2019-02-19T13:30:59.520Z,44.93
2019-02-19T13:32:08.827Z,38.28
2019-02-19T13:33:16.998Z,43.02
2019-02-19T13:34:23.800Z,42.53
2019-02-19T13:35:29.874Z,40.90
2019-02-19T13:36:37.358Z,43.65
2019-02-19T13:37:47.082Z,48.15
2019-02-19T13:38:54.328Z,38.70
2019-02-19T13:40:03.263Z,42.53
2019-02-19T13:41:10.273Z,40.17
2019-02-19T13:42:18.319Z,39.18
2019-02-19T13:43:31.993Z,43.17
2019-02-19T13:44:47.830Z,46.40
2019-02-19T13:46:01.579Z,41.75
2019-02-19T13:47:02.109Z,42.90
2019-02-19T13:48:07.735Z,42.43
2019-02-19T13:49:16.098Z,45.73
2019-02-19T13:50:25.152Z,38.45
2019-02-19T13:51:46.660Z,40.20
2019-02-19T13:52:51.310Z,41.45
2019-02-19T13:54:11.401Z,41.55
2019-02-19T13:55:16.224Z,41.48
2019-02-19T13:56:25.168Z,43.73
2019-02-19T13:57:51.902Z,40.03
2019-02-19T13:59:47.135Z,46.33
2019-02-19T14:00:04.148Z,43.92
2019-02-19T14:03:07.029Z,41.90
2019-02-19T14:03:31.795Z,45.30
2019-02-19T14:03:57.668Z,48.33
2019-02-19T14:05:09.486Z,39.23
2019-02-19T14:08:17.402Z,45.12
2019-02-19T14:10:41.355Z,39.35
2019-02-19T14:13:12.612Z,41.83
2019-02-19T14:13:34.794Z,41.58
2019-02-19T14:14:58.662Z,33.78
2019-02-19T14:17:46.467Z,37.15
2019-02-19T14:19:20.991Z,40.15
2019-02-19T14:20:50.782Z,39.75
2019-02-19T14:22:29.914Z,35.75
2019-02-19T14:25:46.974Z,35.10
2019-02-19T14:27:26.036Z,37.38
2019-02-19T14:28:03.066Z,39.10
2019-02-19T14:32:32.206Z,33.08
2019-02-19T14:32:50.913Z,42.05
2019-02-19T14:35:49.532Z,36.88
2019-02-19T14:37:07.483Z,35.05
2019-02-19T14:39:44.716Z,36.63
2019-02-19T14:42:59.198Z,40.85
2019-02-19T14:52:40.803Z,35.13
2019-02-19T14:57:15.495Z,42.93
2019-02-19T15:00:44.455Z,47.23
2019-02-19T15:01:43.991Z,39.73
2019-02-19T15:03:08.981Z,41.70
2019-02-19T15:04:23.210Z,45.05
2019-02-19T15:05:42.650Z,40.00
2019-02-19T15:07:23.699Z,39.00
2019-02-19T15:09:50.120Z,41.42
2019-02-19T15:12:30.350Z,42.08
2019-02-19T15:17:18.475Z,40.17
2019-02-19T15:18:41.349Z,47.98
2019-02-19T15:20:04.981Z,42.20
2019-02-19T15:21:16.483Z,47.40
2019-02-19T15:22:28.374Z,48.68
2019-02-19T15:23:43.305Z,48.48
2019-02-19T15:25:12.441Z,46.13
2019-02-19T15:26:18.053Z,47.88